sensor_id;sensor_type;location;lat;lon;timestamp;temperature;humidity
53065;DHT22;38948;48.376;-4.312;2022-11-23T00:01:25;16.90;75.10
53065;DHT22;38948;48.376;-4.312;2022-11-23T00:03:53;16.90;75.20
53065;DHT22;38948;48.376;-4.312;2022-11-23T00:06:21;16.90;75.20
53065;DHT22;38948;48.376;-4.312;2022-11-23T00:08:47;16.90;75.30
53065;DHT22;38948;48.376;-4.312;2022-11-23T00:11:14;16.90;75.30
53065;DHT22;38948;48.376;-4.312;2022-11-23T00:13:40;16.90;75.30
53065;DHT22;38948;48.376;-4.312;2022-11-23T00:16:14;16.90;75.30
53065;DHT22;38948;48.376;-4.312;2022-11-23T00:18:40;16.90;75.30
53065;DHT22;38948;48.376;-4.312;2022-11-23T00:21:12;16.90;75.30
53065;DHT22;38948;48.376;-4.312;2022-11-23T00:23:38;16.90;75.40
53065;DHT22;38948;48.376;-4.312;2022-11-23T00:26:05;16.90;75.40
53065;DHT22;38948;48.376;-4.312;2022-11-23T00:28:31;16.90;75.40
53065;DHT22;38948;48.376;-4.312;2022-11-23T00:30:57;16.90;75.40
53065;DHT22;38948;48.376;-4.312;2022-11-23T00:33:23;16.90;75.40
53065;DHT22;38948;48.376;-4.312;2022-11-23T00:36:00;16.90;75.50
53065;DHT22;38948;48.376;-4.312;2022-11-23T00:38:27;16.80;75.50
53065;DHT22;38948;48.376;-4.312;2022-11-23T00:40:59;16.90;75.50
53065;DHT22;38948;48.376;-4.312;2022-11-23T00:43:27;16.90;75.50
53065;DHT22;38948;48.376;-4.312;2022-11-23T00:46:07;16.90;75.50
53065;DHT22;38948;48.376;-4.312;2022-11-23T00:48:33;16.90;75.50
53065;DHT22;38948;48.376;-4.312;2022-11-23T00:51:01;16.80;75.50
53065;DHT22;38948;48.376;-4.312;2022-11-23T00:53:27;16.90;75.50
53065;DHT22;38948;48.376;-4.312;2022-11-23T00:55:54;16.80;75.50
53065;DHT22;38948;48.376;-4.312;2022-11-23T00:58:20;16.90;75.50
53065;DHT22;38948;48.376;-4.312;2022-11-23T01:00:46;16.80;75.50
53065;DHT22;38948;48.376;-4.312;2022-11-23T01:03:13;16.90;75.50
53065;DHT22;38948;48.376;-4.312;2022-11-23T01:05:39;16.80;75.50
53065;DHT22;38948;48.376;-4.312;2022-11-23T01:08:05;16.80;75.70
53065;DHT22;38948;48.376;-4.312;2022-11-23T01:10:32;16.80;75.70
53065;DHT22;38948;48.376;-4.312;2022-11-23T01:12:58;16.80;75.70
53065;DHT22;38948;48.376;-4.312;2022-11-23T01:15:24;16.80;75.70
53065;DHT22;38948;48.376;-4.312;2022-11-23T01:17:50;16.80;75.70
53065;DHT22;38948;48.376;-4.312;2022-11-23T01:20:16;16.80;75.70
53065;DHT22;38948;48.376;-4.312;2022-11-23T01:22:42;16.80;75.70
53065;DHT22;38948;48.376;-4.312;2022-11-23T01:25:08;16.80;75.70
53065;DHT22;38948;48.376;-4.312;2022-11-23T01:27:34;16.80;75.90
53065;DHT22;38948;48.376;-4.312;2022-11-23T01:30:00;16.80;75.90
53065;DHT22;38948;48.376;-4.312;2022-11-23T01:32:28;16.80;75.90
53065;DHT22;38948;48.376;-4.312;2022-11-23T01:34:54;16.80;75.90
53065;DHT22;38948;48.376;-4.312;2022-11-23T01:37:20;16.80;75.90
53065;DHT22;38948;48.376;-4.312;2022-11-23T01:39:47;16.80;75.90
53065;DHT22;38948;48.376;-4.312;2022-11-23T01:42:13;16.80;75.90
53065;DHT22;38948;48.376;-4.312;2022-11-23T01:44:41;16.80;75.90
53065;DHT22;38948;48.376;-4.312;2022-11-23T01:47:08;16.80;75.90
53065;DHT22;38948;48.376;-4.312;2022-11-23T01:49:44;16.80;75.90
53065;DHT22;38948;48.376;-4.312;2022-11-23T01:52:20;16.80;76.10
53065;DHT22;38948;48.376;-4.312;2022-11-23T01:54:52;16.80;76.10
53065;DHT22;38948;48.376;-4.312;2022-11-23T01:57:25;16.80;76.10
53065;DHT22;38948;48.376;-4.312;2022-11-23T01:59:53;16.80;76.10
53065;DHT22;38948;48.376;-4.312;2022-11-23T02:02:20;16.80;76.10
53065;DHT22;38948;48.376;-4.312;2022-11-23T02:04:48;16.80;76.20
53065;DHT22;38948;48.376;-4.312;2022-11-23T02:07:16;16.80;76.20
53065;DHT22;38948;48.376;-4.312;2022-11-23T02:09:46;16.80;76.20
53065;DHT22;38948;48.376;-4.312;2022-11-23T02:12:13;16.80;76.30
53065;DHT22;38948;48.376;-4.312;2022-11-23T02:14:40;16.70;76.20
53065;DHT22;38948;48.376;-4.312;2022-11-23T02:17:06;16.70;76.20
53065;DHT22;38948;48.376;-4.312;2022-11-23T02:23:07;16.80;76.40
53065;DHT22;38948;48.376;-4.312;2022-11-23T02:28:26;16.70;76.30
53065;DHT22;38948;48.376;-4.312;2022-11-23T02:30:54;16.70;76.40
53065;DHT22;38948;48.376;-4.312;2022-11-23T02:33:20;16.70;76.40
53065;DHT22;38948;48.376;-4.312;2022-11-23T02:35:51;16.70;76.40
53065;DHT22;38948;48.376;-4.312;2022-11-23T02:38:17;16.80;76.50
53065;DHT22;38948;48.376;-4.312;2022-11-23T02:40:44;16.80;76.50
53065;DHT22;38948;48.376;-4.312;2022-11-23T02:43:13;16.80;76.50
53065;DHT22;38948;48.376;-4.312;2022-11-23T02:46:03;16.70;76.50
53065;DHT22;38948;48.376;-4.312;2022-11-23T02:48:29;16.70;76.60
53065;DHT22;38948;48.376;-4.312;2022-11-23T02:50:55;16.70;76.70
53065;DHT22;38948;48.376;-4.312;2022-11-23T02:53:21;16.70;76.70
53065;DHT22;38948;48.376;-4.312;2022-11-23T02:55:47;16.70;76.70
53065;DHT22;38948;48.376;-4.312;2022-11-23T02:58:12;16.70;76.70
53065;DHT22;38948;48.376;-4.312;2022-11-23T03:00:38;16.70;76.70
53065;DHT22;38948;48.376;-4.312;2022-11-23T03:03:04;16.70;76.80
53065;DHT22;38948;48.376;-4.312;2022-11-23T03:05:31;16.70;76.60
53065;DHT22;38948;48.376;-4.312;2022-11-23T03:07:57;16.70;76.70
53065;DHT22;38948;48.376;-4.312;2022-11-23T03:10:23;16.70;76.60
53065;DHT22;38948;48.376;-4.312;2022-11-23T03:12:49;16.70;76.60
53065;DHT22;38948;48.376;-4.312;2022-11-23T03:15:18;16.70;76.70
53065;DHT22;38948;48.376;-4.312;2022-11-23T03:17:43;16.70;76.80
53065;DHT22;38948;48.376;-4.312;2022-11-23T03:20:09;16.70;76.80
53065;DHT22;38948;48.376;-4.312;2022-11-23T03:22:35;16.70;76.80
53065;DHT22;38948;48.376;-4.312;2022-11-23T03:25:01;16.70;76.80
53065;DHT22;38948;48.376;-4.312;2022-11-23T03:29:55;16.70;76.60
53065;DHT22;38948;48.376;-4.312;2022-11-23T03:32:21;16.70;76.70
53065;DHT22;38948;48.376;-4.312;2022-11-23T03:34:47;16.70;76.70
53065;DHT22;38948;48.376;-4.312;2022-11-23T03:37:13;16.70;76.70
53065;DHT22;38948;48.376;-4.312;2022-11-23T03:39:38;16.70;76.60
53065;DHT22;38948;48.376;-4.312;2022-11-23T03:42:04;16.70;76.70
53065;DHT22;38948;48.376;-4.312;2022-11-23T03:44:30;16.70;76.70
53065;DHT22;38948;48.376;-4.312;2022-11-23T03:46:56;16.80;76.70
53065;DHT22;38948;48.376;-4.312;2022-11-23T03:49:22;16.70;76.60
53065;DHT22;38948;48.376;-4.312;2022-11-23T03:51:48;16.80;76.60
53065;DHT22;38948;48.376;-4.312;2022-11-23T03:54:14;16.80;76.60
53065;DHT22;38948;48.376;-4.312;2022-11-23T03:56:40;16.80;76.70
53065;DHT22;38948;48.376;-4.312;2022-11-23T03:59:06;16.80;76.70
53065;DHT22;38948;48.376;-4.312;2022-11-23T04:01:37;16.80;76.80
53065;DHT22;38948;48.376;-4.312;2022-11-23T04:04:02;16.80;76.70
53065;DHT22;38948;48.376;-4.312;2022-11-23T04:06:28;16.80;76.60
53065;DHT22;38948;48.376;-4.312;2022-11-23T04:08:54;16.80;76.50
53065;DHT22;38948;48.376;-4.312;2022-11-23T04:11:20;16.80;76.50
53065;DHT22;38948;48.376;-4.312;2022-11-23T04:13:49;16.80;76.60
53065;DHT22;38948;48.376;-4.312;2022-11-23T04:16:15;16.80;76.60
53065;DHT22;38948;48.376;-4.312;2022-11-23T04:18:41;16.80;76.60
53065;DHT22;38948;48.376;-4.312;2022-11-23T04:21:06;16.80;76.50
53065;DHT22;38948;48.376;-4.312;2022-11-23T04:23:32;16.80;76.50
53065;DHT22;38948;48.376;-4.312;2022-11-23T04:25:58;16.80;76.60
53065;DHT22;38948;48.376;-4.312;2022-11-23T04:28:24;16.70;76.60
53065;DHT22;38948;48.376;-4.312;2022-11-23T04:30:50;16.70;76.50
53065;DHT22;38948;48.376;-4.312;2022-11-23T04:33:16;16.80;76.50
53065;DHT22;38948;48.376;-4.312;2022-11-23T04:35:42;16.70;76.40
53065;DHT22;38948;48.376;-4.312;2022-11-23T04:38:08;16.70;76.40
53065;DHT22;38948;48.376;-4.312;2022-11-23T04:40:34;16.70;76.40
53065;DHT22;38948;48.376;-4.312;2022-11-23T04:43:00;16.70;76.40
53065;DHT22;38948;48.376;-4.312;2022-11-23T04:45:25;16.70;76.50
53065;DHT22;38948;48.376;-4.312;2022-11-23T04:47:51;16.70;76.40
53065;DHT22;38948;48.376;-4.312;2022-11-23T04:50:17;16.70;76.40
53065;DHT22;38948;48.376;-4.312;2022-11-23T04:52:43;16.70;76.40
53065;DHT22;38948;48.376;-4.312;2022-11-23T04:55:09;16.70;76.50
53065;DHT22;38948;48.376;-4.312;2022-11-23T04:57:35;16.70;76.50
53065;DHT22;38948;48.376;-4.312;2022-11-23T05:00:02;16.70;76.50
53065;DHT22;38948;48.376;-4.312;2022-11-23T05:02:28;16.70;76.50
53065;DHT22;38948;48.376;-4.312;2022-11-23T05:04:54;16.70;76.50
53065;DHT22;38948;48.376;-4.312;2022-11-23T05:07:20;16.70;76.50
53065;DHT22;38948;48.376;-4.312;2022-11-23T05:09:46;16.70;76.60
53065;DHT22;38948;48.376;-4.312;2022-11-23T05:12:12;16.70;76.60
53065;DHT22;38948;48.376;-4.312;2022-11-23T05:14:38;16.70;76.50
53065;DHT22;38948;48.376;-4.312;2022-11-23T05:17:04;16.70;76.70
53065;DHT22;38948;48.376;-4.312;2022-11-23T05:19:29;16.70;76.60
53065;DHT22;38948;48.376;-4.312;2022-11-23T05:21:55;16.70;76.50
53065;DHT22;38948;48.376;-4.312;2022-11-23T05:24:21;16.70;76.60
53065;DHT22;38948;48.376;-4.312;2022-11-23T05:26:47;16.70;76.50
53065;DHT22;38948;48.376;-4.312;2022-11-23T05:29:13;16.70;76.50
53065;DHT22;38948;48.376;-4.312;2022-11-23T05:31:38;16.70;76.50
53065;DHT22;38948;48.376;-4.312;2022-11-23T05:34:04;16.70;76.50
53065;DHT22;38948;48.376;-4.312;2022-11-23T05:36:30;16.70;76.50
53065;DHT22;38948;48.376;-4.312;2022-11-23T05:38:56;16.70;76.50
53065;DHT22;38948;48.376;-4.312;2022-11-23T05:41:22;16.70;76.40
53065;DHT22;38948;48.376;-4.312;2022-11-23T05:43:48;16.70;76.40
53065;DHT22;38948;48.376;-4.312;2022-11-23T05:46:14;16.70;76.40
53065;DHT22;38948;48.376;-4.312;2022-11-23T05:48:40;16.70;76.30
53065;DHT22;38948;48.376;-4.312;2022-11-23T05:51:06;16.70;76.30
53065;DHT22;38948;48.376;-4.312;2022-11-23T05:53:35;16.70;76.30
53065;DHT22;38948;48.376;-4.312;2022-11-23T05:56:01;16.70;76.20
53065;DHT22;38948;48.376;-4.312;2022-11-23T05:58:28;16.70;77.00
53065;DHT22;38948;48.376;-4.312;2022-11-23T06:00:58;16.70;77.60
53065;DHT22;38948;48.376;-4.312;2022-11-23T06:03:24;16.70;77.50
53065;DHT22;38948;48.376;-4.312;2022-11-23T06:05:50;16.80;77.50
53065;DHT22;38948;48.376;-4.312;2022-11-23T06:08:16;16.80;77.50
53065;DHT22;38948;48.376;-4.312;2022-11-23T06:10:42;16.90;77.60
53065;DHT22;38948;48.376;-4.312;2022-11-23T06:13:08;16.90;78.20
53065;DHT22;38948;48.376;-4.312;2022-11-23T06:15:33;16.90;77.30
53065;DHT22;38948;48.376;-4.312;2022-11-23T06:18:01;16.90;76.80
53065;DHT22;38948;48.376;-4.312;2022-11-23T06:20:28;17.00;76.60
53065;DHT22;38948;48.376;-4.312;2022-11-23T06:22:54;17.00;76.40
53065;DHT22;38948;48.376;-4.312;2022-11-23T06:25:22;17.00;76.40
53065;DHT22;38948;48.376;-4.312;2022-11-23T06:27:56;17.00;76.30
53065;DHT22;38948;48.376;-4.312;2022-11-23T06:30:23;17.00;76.50
53065;DHT22;38948;48.376;-4.312;2022-11-23T06:32:50;17.00;76.50
53065;DHT22;38948;48.376;-4.312;2022-11-23T06:35:16;17.00;76.50
53065;DHT22;38948;48.376;-4.312;2022-11-23T06:37:42;17.00;76.50
53065;DHT22;38948;48.376;-4.312;2022-11-23T06:40:09;17.00;76.60
53065;DHT22;38948;48.376;-4.312;2022-11-23T06:42:35;17.00;76.50
53065;DHT22;38948;48.376;-4.312;2022-11-23T06:45:01;17.00;76.50
53065;DHT22;38948;48.376;-4.312;2022-11-23T06:47:28;17.10;76.50
53065;DHT22;38948;48.376;-4.312;2022-11-23T06:49:54;17.10;76.60
53065;DHT22;38948;48.376;-4.312;2022-11-23T06:52:20;17.10;76.70
53065;DHT22;38948;48.376;-4.312;2022-11-23T06:54:46;17.10;77.00
53065;DHT22;38948;48.376;-4.312;2022-11-23T06:57:12;17.10;77.00
53065;DHT22;38948;48.376;-4.312;2022-11-23T06:59:38;17.10;76.90
53065;DHT22;38948;48.376;-4.312;2022-11-23T07:02:04;17.10;76.80
53065;DHT22;38948;48.376;-4.312;2022-11-23T07:04:30;17.10;76.80
53065;DHT22;38948;48.376;-4.312;2022-11-23T07:06:56;17.10;76.70
53065;DHT22;38948;48.376;-4.312;2022-11-23T07:09:22;17.10;76.70
53065;DHT22;38948;48.376;-4.312;2022-11-23T07:11:48;17.10;76.40
53065;DHT22;38948;48.376;-4.312;2022-11-23T07:14:14;17.10;76.50
53065;DHT22;38948;48.376;-4.312;2022-11-23T07:16:41;17.10;76.50
53065;DHT22;38948;48.376;-4.312;2022-11-23T07:19:07;17.10;76.40
53065;DHT22;38948;48.376;-4.312;2022-11-23T07:21:33;17.10;76.40
53065;DHT22;38948;48.376;-4.312;2022-11-23T07:23:59;17.20;76.30
53065;DHT22;38948;48.376;-4.312;2022-11-23T07:26:25;17.20;76.30
53065;DHT22;38948;48.376;-4.312;2022-11-23T07:28:51;17.20;76.20
53065;DHT22;38948;48.376;-4.312;2022-11-23T07:33:46;17.10;76.20
53065;DHT22;38948;48.376;-4.312;2022-11-23T07:36:12;17.20;76.20
53065;DHT22;38948;48.376;-4.312;2022-11-23T07:38:38;17.20;76.20
53065;DHT22;38948;48.376;-4.312;2022-11-23T07:41:04;17.20;76.10
53065;DHT22;38948;48.376;-4.312;2022-11-23T07:43:33;17.20;76.10
53065;DHT22;38948;48.376;-4.312;2022-11-23T07:45:59;17.20;76.30
53065;DHT22;38948;48.376;-4.312;2022-11-23T07:48:25;17.20;76.20
53065;DHT22;38948;48.376;-4.312;2022-11-23T07:50:54;17.20;76.30
53065;DHT22;38948;48.376;-4.312;2022-11-23T07:53:19;17.20;76.40
53065;DHT22;38948;48.376;-4.312;2022-11-23T07:55:45;17.20;76.40
53065;DHT22;38948;48.376;-4.312;2022-11-23T07:58:11;17.20;76.70
53065;DHT22;38948;48.376;-4.312;2022-11-23T08:00:37;17.20;77.40
53065;DHT22;38948;48.376;-4.312;2022-11-23T08:03:03;17.20;77.40
53065;DHT22;38948;48.376;-4.312;2022-11-23T08:05:33;17.30;77.60
53065;DHT22;38948;48.376;-4.312;2022-11-23T08:08:01;17.30;77.50
53065;DHT22;38948;48.376;-4.312;2022-11-23T08:10:28;17.30;77.70
53065;DHT22;38948;48.376;-4.312;2022-11-23T08:12:58;17.40;77.70
53065;DHT22;38948;48.376;-4.312;2022-11-23T08:15:25;17.40;77.70
53065;DHT22;38948;48.376;-4.312;2022-11-23T08:17:59;17.40;77.60
53065;DHT22;38948;48.376;-4.312;2022-11-23T08:20:26;17.50;77.60
53065;DHT22;38948;48.376;-4.312;2022-11-23T08:22:52;17.50;77.60
53065;DHT22;38948;48.376;-4.312;2022-11-23T08:25:24;17.60;77.40
53065;DHT22;38948;48.376;-4.312;2022-11-23T08:27:58;17.60;77.10
53065;DHT22;38948;48.376;-4.312;2022-11-23T08:30:25;17.70;76.90
53065;DHT22;38948;48.376;-4.312;2022-11-23T08:32:51;17.70;76.80
53065;DHT22;38948;48.376;-4.312;2022-11-23T08:35:16;17.70;76.50
53065;DHT22;38948;48.376;-4.312;2022-11-23T08:37:42;17.80;76.50
53065;DHT22;38948;48.376;-4.312;2022-11-23T08:40:08;17.80;76.20
53065;DHT22;38948;48.376;-4.312;2022-11-23T08:42:34;17.80;75.80
53065;DHT22;38948;48.376;-4.312;2022-11-23T08:45:00;17.80;75.20
53065;DHT22;38948;48.376;-4.312;2022-11-23T08:47:28;17.80;74.40
53065;DHT22;38948;48.376;-4.312;2022-11-23T08:49:54;17.90;74.00
53065;DHT22;38948;48.376;-4.312;2022-11-23T08:52:19;17.90;73.80
53065;DHT22;38948;48.376;-4.312;2022-11-23T08:54:45;17.90;73.60
53065;DHT22;38948;48.376;-4.312;2022-11-23T08:57:11;17.90;73.60
53065;DHT22;38948;48.376;-4.312;2022-11-23T08:59:36;17.90;74.50
53065;DHT22;38948;48.376;-4.312;2022-11-23T09:02:02;17.90;75.10
53065;DHT22;38948;48.376;-4.312;2022-11-23T09:04:28;17.90;75.70
53065;DHT22;38948;48.376;-4.312;2022-11-23T09:06:56;17.90;75.80
53065;DHT22;38948;48.376;-4.312;2022-11-23T09:09:21;18.00;76.00
53065;DHT22;38948;48.376;-4.312;2022-11-23T09:11:47;18.00;76.10
53065;DHT22;38948;48.376;-4.312;2022-11-23T09:14:13;18.00;76.40
53065;DHT22;38948;48.376;-4.312;2022-11-23T09:16:40;18.10;76.20
53065;DHT22;38948;48.376;-4.312;2022-11-23T09:19:05;18.10;75.80
53065;DHT22;38948;48.376;-4.312;2022-11-23T09:21:32;18.10;75.30
53065;DHT22;38948;48.376;-4.312;2022-11-23T09:24:00;18.00;74.90
53065;DHT22;38948;48.376;-4.312;2022-11-23T09:26:26;18.10;74.70
53065;DHT22;38948;48.376;-4.312;2022-11-23T09:28:52;18.10;74.30
53065;DHT22;38948;48.376;-4.312;2022-11-23T09:31:18;18.10;74.00
53065;DHT22;38948;48.376;-4.312;2022-11-23T09:33:44;18.10;74.00
53065;DHT22;38948;48.376;-4.312;2022-11-23T09:36:10;18.10;74.00
53065;DHT22;38948;48.376;-4.312;2022-11-23T09:38:35;18.10;73.90
53065;DHT22;38948;48.376;-4.312;2022-11-23T09:41:58;18.10;73.90
53065;DHT22;38948;48.376;-4.312;2022-11-23T09:44:19;18.10;74.50
53065;DHT22;38948;48.376;-4.312;2022-11-23T09:52:17;18.20;74.50
53065;DHT22;38948;48.376;-4.312;2022-11-23T09:54:45;18.20;74.80
53065;DHT22;38948;48.376;-4.312;2022-11-23T09:57:17;18.20;75.40
53065;DHT22;38948;48.376;-4.312;2022-11-23T10:00:05;18.20;75.40
53065;DHT22;38948;48.376;-4.312;2022-11-23T10:02:35;18.20;75.60
53065;DHT22;38948;48.376;-4.312;2022-11-23T10:05:04;18.20;75.90
53065;DHT22;38948;48.376;-4.312;2022-11-23T10:07:52;18.30;76.10
53065;DHT22;38948;48.376;-4.312;2022-11-23T10:13:32;18.30;76.70
53065;DHT22;38948;48.376;-4.312;2022-11-23T10:18:54;18.40;77.30
53065;DHT22;38948;48.376;-4.312;2022-11-23T10:26:39;18.50;78.20
53065;DHT22;38948;48.376;-4.312;2022-11-23T10:29:29;18.50;78.30
53065;DHT22;38948;48.376;-4.312;2022-11-23T10:31:56;18.50;78.60
53065;DHT22;38948;48.376;-4.312;2022-11-23T10:37:20;18.50;78.90
53065;DHT22;38948;48.376;-4.312;2022-11-23T10:39:46;18.50;79.20
53065;DHT22;38948;48.376;-4.312;2022-11-23T10:42:29;18.60;79.40
53065;DHT22;38948;48.376;-4.312;2022-11-23T10:44:58;18.60;79.60
53065;DHT22;38948;48.376;-4.312;2022-11-23T10:47:39;18.60;79.90
53065;DHT22;38948;48.376;-4.312;2022-11-23T10:50:21;18.60;79.90
53065;DHT22;38948;48.376;-4.312;2022-11-23T10:52:56;18.60;79.90
53065;DHT22;38948;48.376;-4.312;2022-11-23T10:55:29;18.60;79.70
53065;DHT22;38948;48.376;-4.312;2022-11-23T10:57:56;18.60;80.00
53065;DHT22;38948;48.376;-4.312;2022-11-23T11:00:24;18.60;79.90
53065;DHT22;38948;48.376;-4.312;2022-11-23T11:02:56;18.70;80.10
53065;DHT22;38948;48.376;-4.312;2022-11-23T11:05:38;18.70;79.90
53065;DHT22;38948;48.376;-4.312;2022-11-23T11:08:19;18.70;80.00
53065;DHT22;38948;48.376;-4.312;2022-11-23T11:16:04;18.70;80.80
53065;DHT22;38948;48.376;-4.312;2022-11-23T11:18:33;18.80;80.30
53065;DHT22;38948;48.376;-4.312;2022-11-23T11:21:16;18.80;80.70
53065;DHT22;38948;48.376;-4.312;2022-11-23T11:23:59;18.80;80.10
53065;DHT22;38948;48.376;-4.312;2022-11-23T11:26:28;18.80;79.90
53065;DHT22;38948;48.376;-4.312;2022-11-23T11:29:00;18.90;80.00
53065;DHT22;38948;48.376;-4.312;2022-11-23T11:34:16;18.90;80.20
53065;DHT22;38948;48.376;-4.312;2022-11-23T11:39:27;19.00;80.00
53065;DHT22;38948;48.376;-4.312;2022-11-23T11:41:57;19.00;79.90
53065;DHT22;38948;48.376;-4.312;2022-11-23T11:44:26;19.00;80.30
53065;DHT22;38948;48.376;-4.312;2022-11-23T11:47:26;19.00;80.60
53065;DHT22;38948;48.376;-4.312;2022-11-23T11:49:55;19.10;81.30
53065;DHT22;38948;48.376;-4.312;2022-11-23T11:52:29;19.10;81.10
53065;DHT22;38948;48.376;-4.312;2022-11-23T11:55:17;19.10;81.50
53065;DHT22;38948;48.376;-4.312;2022-11-23T11:58:01;19.10;81.40
53065;DHT22;38948;48.376;-4.312;2022-11-23T12:00:29;19.10;80.80
53065;DHT22;38948;48.376;-4.312;2022-11-23T12:03:41;19.10;80.80
53065;DHT22;38948;48.376;-4.312;2022-11-23T12:05:49;19.10;80.50
53065;DHT22;38948;48.376;-4.312;2022-11-23T12:11:18;19.20;79.90
53065;DHT22;38948;48.376;-4.312;2022-11-23T12:13:44;19.20;79.60
53065;DHT22;38948;48.376;-4.312;2022-11-23T12:55:19;19.30;75.10
53065;DHT22;38948;48.376;-4.312;2022-11-23T13:00:20;19.30;74.90
53065;DHT22;38948;48.376;-4.312;2022-11-23T13:05:24;19.40;74.60
53065;DHT22;38948;48.376;-4.312;2022-11-23T13:14:12;19.40;74.40
53065;DHT22;38948;48.376;-4.312;2022-11-23T13:20:04;19.40;73.90
53065;DHT22;38948;48.376;-4.312;2022-11-23T13:22:32;19.40;73.80
53065;DHT22;38948;48.376;-4.312;2022-11-23T13:30:25;19.50;73.60
53065;DHT22;38948;48.376;-4.312;2022-11-23T13:32:57;19.50;73.50
53065;DHT22;38948;48.376;-4.312;2022-11-23T13:40:41;19.50;73.40
53065;DHT22;38948;48.376;-4.312;2022-11-23T13:45:44;19.50;73.20
53065;DHT22;38948;48.376;-4.312;2022-11-23T13:50:55;19.50;73.00
53065;DHT22;38948;48.376;-4.312;2022-11-23T13:53:31;19.50;73.00
53065;DHT22;38948;48.376;-4.312;2022-11-23T13:58:52;19.50;73.10
53065;DHT22;38948;48.376;-4.312;2022-11-23T14:04:24;19.50;74.70
53065;DHT22;38948;48.376;-4.312;2022-11-23T14:06:57;19.50;75.20
53065;DHT22;38948;48.376;-4.312;2022-11-23T14:14:54;19.60;76.00
53065;DHT22;38948;48.376;-4.312;2022-11-23T14:20:48;19.70;76.20
53065;DHT22;38948;48.376;-4.312;2022-11-23T14:29:20;19.90;76.00
53065;DHT22;38948;48.376;-4.312;2022-11-23T14:37:40;20.10;76.40
53065;DHT22;38948;48.376;-4.312;2022-11-23T14:42:54;20.20;76.00
53065;DHT22;38948;48.376;-4.312;2022-11-23T14:45:23;20.20;76.30
53065;DHT22;38948;48.376;-4.312;2022-11-23T14:47:52;20.20;76.10
53065;DHT22;38948;48.376;-4.312;2022-11-23T14:50:26;20.20;76.20
53065;DHT22;38948;48.376;-4.312;2022-11-23T14:52:54;20.30;75.90
53065;DHT22;38948;48.376;-4.312;2022-11-23T14:55:23;20.30;75.90
53065;DHT22;38948;48.376;-4.312;2022-11-23T14:57:53;20.40;75.60
53065;DHT22;38948;48.376;-4.312;2022-11-23T15:00:36;20.40;74.20
53065;DHT22;38948;48.376;-4.312;2022-11-23T15:03:16;20.40;74.00
53065;DHT22;38948;48.376;-4.312;2022-11-23T15:05:48;20.40;73.90
53065;DHT22;38948;48.376;-4.312;2022-11-23T15:08:31;20.30;73.60
53065;DHT22;38948;48.376;-4.312;2022-11-23T15:11:08;20.30;73.30
53065;DHT22;38948;48.376;-4.312;2022-11-23T15:13:47;20.30;73.10
53065;DHT22;38948;48.376;-4.312;2022-11-23T15:16:15;20.30;72.80
53065;DHT22;38948;48.376;-4.312;2022-11-23T15:18:42;20.30;73.00
53065;DHT22;38948;48.376;-4.312;2022-11-23T15:23:42;20.20;72.60
53065;DHT22;38948;48.376;-4.312;2022-11-23T15:26:21;20.20;72.40
53065;DHT22;38948;48.376;-4.312;2022-11-23T15:28:47;20.20;72.30
53065;DHT22;38948;48.376;-4.312;2022-11-23T15:31:31;20.20;72.40
53065;DHT22;38948;48.376;-4.312;2022-11-23T15:36:38;20.10;72.20
53065;DHT22;38948;48.376;-4.312;2022-11-23T15:39:06;20.10;72.10
53065;DHT22;38948;48.376;-4.312;2022-11-23T15:41:38;20.00;72.10
53065;DHT22;38948;48.376;-4.312;2022-11-23T15:46:54;20.00;72.00
53065;DHT22;38948;48.376;-4.312;2022-11-23T15:49:23;20.00;72.00
53065;DHT22;38948;48.376;-4.312;2022-11-23T15:51:49;19.90;72.20
53065;DHT22;38948;48.376;-4.312;2022-11-23T15:54:20;19.90;72.20
53065;DHT22;38948;48.376;-4.312;2022-11-23T15:56:49;19.90;72.00
53065;DHT22;38948;48.376;-4.312;2022-11-23T16:01:51;19.80;71.70
53065;DHT22;38948;48.376;-4.312;2022-11-23T16:04:35;19.80;71.60
53065;DHT22;38948;48.376;-4.312;2022-11-23T16:07:21;19.80;71.50
53065;DHT22;38948;48.376;-4.312;2022-11-23T16:12:34;19.70;71.50
53065;DHT22;38948;48.376;-4.312;2022-11-23T16:20:50;19.70;71.60
53065;DHT22;38948;48.376;-4.312;2022-11-23T16:23:21;19.60;71.70
53065;DHT22;38948;48.376;-4.312;2022-11-23T16:26:13;19.60;71.80
53065;DHT22;38948;48.376;-4.312;2022-11-23T16:28:54;19.60;71.90
53065;DHT22;38948;48.376;-4.312;2022-11-23T16:31:36;19.60;71.70
53065;DHT22;38948;48.376;-4.312;2022-11-23T16:34:08;19.50;71.80
53065;DHT22;38948;48.376;-4.312;2022-11-23T16:36:34;19.50;71.80
53065;DHT22;38948;48.376;-4.312;2022-11-23T16:39:00;19.50;71.90
53065;DHT22;38948;48.376;-4.312;2022-11-23T16:41:27;19.50;71.90
53065;DHT22;38948;48.376;-4.312;2022-11-23T16:43:53;19.50;71.90
53065;DHT22;38948;48.376;-4.312;2022-11-23T16:46:19;19.40;71.90
53065;DHT22;38948;48.376;-4.312;2022-11-23T16:48:45;19.40;71.90
53065;DHT22;38948;48.376;-4.312;2022-11-23T16:51:12;19.40;71.80
53065;DHT22;38948;48.376;-4.312;2022-11-23T16:53:46;19.40;71.90
53065;DHT22;38948;48.376;-4.312;2022-11-23T16:56:23;19.40;71.90
53065;DHT22;38948;48.376;-4.312;2022-11-23T16:58:50;19.30;71.90
53065;DHT22;38948;48.376;-4.312;2022-11-23T17:01:22;19.30;71.90
53065;DHT22;38948;48.376;-4.312;2022-11-23T17:03:48;19.30;72.00
53065;DHT22;38948;48.376;-4.312;2022-11-23T17:06:15;19.30;72.00
53065;DHT22;38948;48.376;-4.312;2022-11-23T17:08:42;19.20;71.90
53065;DHT22;38948;48.376;-4.312;2022-11-23T17:11:17;19.20;72.00
53065;DHT22;38948;48.376;-4.312;2022-11-23T17:13:45;19.20;72.00
53065;DHT22;38948;48.376;-4.312;2022-11-23T17:16:14;19.20;72.00
53065;DHT22;38948;48.376;-4.312;2022-11-23T17:18:43;19.20;72.30
53065;DHT22;38948;48.376;-4.312;2022-11-23T17:21:09;19.20;72.30
53065;DHT22;38948;48.376;-4.312;2022-11-23T17:23:36;19.20;72.40
53065;DHT22;38948;48.376;-4.312;2022-11-23T17:26:06;19.20;72.40
53065;DHT22;38948;48.376;-4.312;2022-11-23T17:28:32;19.20;72.90
53065;DHT22;38948;48.376;-4.312;2022-11-23T17:31:00;19.20;73.00
53065;DHT22;38948;48.376;-4.312;2022-11-23T17:33:26;19.20;73.20
53065;DHT22;38948;48.376;-4.312;2022-11-23T17:35:55;19.20;73.50
53065;DHT22;38948;48.376;-4.312;2022-11-23T17:38:27;19.20;73.50
53065;DHT22;38948;48.376;-4.312;2022-11-23T17:40:53;19.30;73.00
53065;DHT22;38948;48.376;-4.312;2022-11-23T17:43:19;19.30;72.80
53065;DHT22;38948;48.376;-4.312;2022-11-23T17:45:45;19.30;72.60
53065;DHT22;38948;48.376;-4.312;2022-11-23T17:48:12;19.30;72.50
53065;DHT22;38948;48.376;-4.312;2022-11-23T17:50:39;19.40;72.50
53065;DHT22;38948;48.376;-4.312;2022-11-23T17:53:05;19.40;72.50
53065;DHT22;38948;48.376;-4.312;2022-11-23T17:55:31;19.40;72.40
53065;DHT22;38948;48.376;-4.312;2022-11-23T17:57:58;19.40;72.40
53065;DHT22;38948;48.376;-4.312;2022-11-23T18:00:23;19.40;72.30
53065;DHT22;38948;48.376;-4.312;2022-11-23T18:02:49;19.50;72.20
53065;DHT22;38948;48.376;-4.312;2022-11-23T18:05:16;19.50;72.20
53065;DHT22;38948;48.376;-4.312;2022-11-23T18:07:42;19.50;72.10